Time;durP1;ratioP1;P1;durP2;ratioP2;P2;SDS_P1;SDS_P2;PMS_P1;PMS_P2;Temp;Humidity;BMP_temperature;BMP_pressure;BME280_temperature;BME280_humidity;BME280_pressure;Samples;Min_cycle;Max_cycle;Signal;HPM_P1;HPM_P2
2024/04/11 00:01:48;;;;;;;;;;;;;;;;;;5450154;26;19929;-63
2024/04/11 00:04:13;;;;;;;;;;;;;;;;;;5450697;26;20373;-63
2024/04/11 00:06:39;;;;;;;;;;;;;;;;;;5450662;26;20361;-64
2024/04/11 00:09:04;;;;;;;;;;;;;;;;;;5450762;26;19929;-64
2024/04/11 00:11:29;;;;;;;;;;;;;;;;;;5450615;26;19944;-64
2024/04/11 00:13:54;;;;;;;;;;;;;;;;;;5433113;26;19928;-63
2024/04/11 00:16:19;;;;;;;;;;;;;;;;;;5443974;26;19928;-63
2024/04/11 00:18:44;;;;;;;;;;;;;;;;;;5450200;26;19928;-63
2024/04/11 00:21:09;;;;;;;;;;;;;;;;;;5450401;26;19956;-64
2024/04/11 00:23:34;;;;;;;;;;;;;;;;;;5450395;26;19928;-64
2024/04/11 00:26:00;;;;;;;;;;;;;;;;;;5453335;26;19935;-63
2024/04/11 00:28:25;;;;;;;;;;;;;;;;;;5432972;26;19929;-63
2024/04/11 00:30:50;;;;;;;;;;;;;;;;;;5440416;26;19936;-63
2024/04/11 00:33:15;;;;;;;;;;;;;;;;;;5450185;26;20373;-63
2024/04/11 00:35:41;;;;;;;;;;;;;;;;;;5449918;26;19936;-63
2024/04/11 00:38:10;;;;;;;;;;;;;;;;;;5449913;26;19929;-63
2024/04/11 00:40:35;;;;;;;;;;;;;;;;;;5427271;26;19932;-63
2024/04/11 00:43:00;;;;;;;;;;;;;;;;;;5419790;26;19941;-63
2024/04/11 00:45:25;;;;;;;;;;;;;;;;;;5414675;26;19929;-64
2024/04/11 00:47:50;;;;;;;;;;;;;;;;;;5441480;26;19934;-63
2024/04/11 00:50:16;;;;;;;;;;;;;;;;;;5449530;26;19935;-63
2024/04/11 00:52:43;;;;;;;;;;;;;;;;;;5449729;26;19934;-63
2024/04/11 00:55:08;;;;;;;;;;;;;;;;;;5449983;26;19935;-63
2024/04/11 00:57:35;;;;;;;;;;;;;;;;;;5449934;26;19928;-63
2024/04/11 01:00:04;;;;;;;;;;;;;;;;;;5449653;26;20488;-64
2024/04/11 01:02:29;;;;;;;;;;;;;;;;;;5449280;26;20025;-64
2024/04/11 01:04:54;;;;;;;;;;;;;;;;;;5449603;26;20375;-64
2024/04/11 01:07:20;;;;;;;;;;;;;;;;;;5449619;26;19929;-64
2024/04/11 01:09:45;;;;;;;;;;;;;;;;;;5449350;26;19929;-63
2024/04/11 01:12:12;;;;;;;;;;;;;;;;;;5449605;26;19928;-63
2024/04/11 01:14:37;;;;;;;;;;;;;;;;;;5420568;26;19929;-64
2024/04/11 01:17:02;;;;;;;;;;;;;;;;;;5414961;26;20031;-63
2024/04/11 01:19:27;;;;;;;;;;;;;;;;;;5428867;26;20013;-64
2024/04/11 01:21:53;;;;;;;;;;;;;;;;;;5449343;26;19997;-63
2024/04/11 01:24:18;;;;;;;;;;;;;;;;;;5448808;26;19929;-64
2024/04/11 01:26:43;;;;;;;;;;;;;;;;;;5449470;26;20002;-63
2024/04/11 01:29:10;;;;;;;;;;;;;;;;;;5449212;26;20408;-63
2024/04/11 01:31:35;;;;;;;;;;;;;;;;;;5442009;26;19929;-64
2024/04/11 01:34:01;;;;;;;;;;;;;;;;;;5449394;26;20330;-64
2024/04/11 01:36:26;;;;;;;;;;;;;;;;;;5448679;26;20381;-63
2024/04/11 01:38:51;;;;;;;;;;;;;;;;;;5448706;26;20365;-63
2024/04/11 01:41:16;;;;;;;;;;;;;;;;;;5448999;26;20393;-63
2024/04/11 01:43:41;;;;;;;;;;;;;;;;;;5433213;26;19961;-64
2024/04/11 01:46:07;;;;;;;;;;;;;;;;;;5421835;26;20315;-63
2024/04/11 01:48:33;;;;;;;;;;;;;;;;;;5415156;26;19941;-63
2024/04/11 01:50:58;;;;;;;;;;;;;;;;;;5413698;26;19929;-64
2024/04/11 01:53:23;;;;;;;;;;;;;;;;;;5413851;26;19929;-64
2024/04/11 01:55:48;;;;;;;;;;;;;;;;;;5414082;26;19944;-64
2024/04/11 01:58:13;;;;;;;;;;;;;;;;;;5441955;26;20286;-64
2024/04/11 02:00:39;;;;;;;;;;;;;;;;;;5452555;26;19928;-59
2024/04/11 02:03:04;;;;;;;;;;;;;;;;;;5452409;26;20318;-60
2024/04/11 02:05:29;;;;;;;;;;;;;;;;;;5451885;26;19935;-60
2024/04/11 02:07:55;;;;;;;;;;;;;;;;;;5452260;26;20434;-60
2024/04/11 02:10:20;;;;;;;;;;;;;;;;;;5452454;26;19939;-59
2024/04/11 02:12:46;;;;;;;;;;;;;;;;;;5449706;26;19997;-60
2024/04/11 02:15:14;;;;;;;;;;;;;;;;;;5443939;26;19928;-59
2024/04/11 02:17:39;;;;;;;;;;;;;;;;;;5452268;26;20021;-60
2024/04/11 02:20:10;;;;;;;;;;;;;;;;;;5451974;26;19928;-61
2024/04/11 02:22:35;;;;;;;;;;;;;;;;;;5450540;26;19929;-60
2024/04/11 02:25:00;;;;;;;;;;;;;;;;;;5452258;26;19936;-60
2024/04/11 02:27:25;;;;;;;;;;;;;;;;;;5453622;26;19943;-60
2024/04/11 02:29:50;;;;;;;;;;;;;;;;;;5451420;26;19932;-60
2024/04/11 02:32:16;;;;;;;;;;;;;;;;;;5451850;26;19934;-59
2024/04/11 02:34:41;;;;;;;;;;;;;;;;;;5452120;26;20265;-60
2024/04/11 02:37:06;;;;;;;;;;;;;;;;;;5451869;26;19928;-60
2024/04/11 02:39:31;;;;;;;;;;;;;;;;;;5451866;26;19929;-62
2024/04/11 02:41:57;;;;;;;;;;;;;;;;;;5451974;26;19936;-60
2024/04/11 02:44:22;;;;;;;;;;;;;;;;;;5436867;26;19928;-61
2024/04/11 02:46:48;;;;;;;;;;;;;;;;;;5451888;26;19929;-62
2024/04/11 02:49:15;;;;;;;;;;;;;;;;;;5451744;26;19928;-61
2024/04/11 02:51:40;;;;;;;;;;;;;;;;;;5451596;26;20351;-61
2024/04/11 02:54:05;;;;;;;;;;;;;;;;;;5450983;26;20373;-60
2024/04/11 02:56:31;;;;;;;;;;;;;;;;;;5451793;26;19928;-61
2024/04/11 02:58:56;;;;;;;;;;;;;;;;;;5451973;26;19929;-61
2024/04/11 03:01:21;;;;;;;;;;;;;;;;;;5451646;26;19936;-60
2024/04/11 03:03:47;;;;;;;;;;;;;;;;;;5451601;26;20335;-60
2024/04/11 03:06:12;;;;;;;;;;;;;;;;;;5451196;26;20381;-60
2024/04/11 03:08:40;;;;;;;;;;;;;;;;;;5451300;26;19937;-60
2024/04/11 03:11:06;;;;;;;;;;;;;;;;;;5450395;26;20438;-61
2024/04/11 03:13:32;;;;;;;;;;;;;;;;;;5436258;26;20373;-64
2024/04/11 03:15:57;;;;;;;;;;;;;;;;;;5416749;26;19936;-64
2024/04/11 03:18:22;;;;;;;;;;;;;;;;;;5440464;26;20273;-64
2024/04/11 03:20:47;;;;;;;;;;;;;;;;;;5451192;26;19952;-64
2024/04/11 03:23:16;;;;;;;;;;;;;;;;;;5451354;26;20262;-64
2024/04/11 03:25:41;;;;;;;;;;;;;;;;;;5451510;26;20363;-64
2024/04/11 03:28:07;;;;;;;;;;;;;;;;;;5451015;26;20264;-64
2024/04/11 03:30:32;;;;;;;;;;;;;;;;;;5451250;26;19936;-64
2024/04/11 03:32:57;;;;;;;;;;;;;;;;;;5450677;26;19936;-60
2024/04/11 03:35:22;;;;;;;;;;;;;;;;;;5450766;26;19929;-60
2024/04/11 03:37:49;;;;;;;;;;;;;;;;;;5451085;26;19956;-60
2024/04/11 03:40:15;;;;;;;;;;;;;;;;;;5449945;26;20276;-61
2024/04/11 03:42:41;;;;;;;;;;;;;;;;;;5450050;26;19928;-61
2024/04/11 03:45:10;;;;;;;;;;;;;;;;;;5449693;26;19929;-60
2024/04/11 03:47:37;;;;;;;;;;;;;;;;;;5450948;26;19929;-61
2024/04/11 03:50:02;;;;;;;;;;;;;;;;;;5450641;26;19951;-60
2024/04/11 03:52:27;;;;;;;;;;;;;;;;;;5450690;26;19936;-61
2024/04/11 03:54:53;;;;;;;;;;;;;;;;;;5450721;26;19928;-61
2024/04/11 03:57:18;;;;;;;;;;;;;;;;;;5450701;26;19928;-59
2024/04/11 03:59:44;;;;;;;;;;;;;;;;;;5450502;26;20313;-61
2024/04/11 04:02:09;;;;;;;;;;;;;;;;;;5450792;26;19978;-60
2024/04/11 04:04:34;;;;;;;;;;;;;;;;;;5451272;26;19928;-60
2024/04/11 04:06:59;;;;;;;;;;;;;;;;;;5450503;26;19929;-61
2024/04/11 04:09:25;;;;;;;;;;;;;;;;;;5442782;26;19996;-60
2024/04/11 04:11:51;;;;;;;;;;;;;;;;;;5450395;26;19936;-60
2024/04/11 04:14:16;;;;;;;;;;;;;;;;;;5450187;26;19933;-60
2024/04/11 04:16:41;;;;;;;;;;;;;;;;;;5446468;26;19936;-61
2024/04/11 04:19:07;;;;;;;;;;;;;;;;;;5415577;26;19936;-61
2024/04/11 04:21:34;;;;;;;;;;;;;;;;;;5414459;26;19943;-60
2024/04/11 04:24:02;;;;;;;;;;;;;;;;;;5415697;26;19929;-60
2024/04/11 04:26:30;;;;;;;;;;;;;;;;;;5431342;26;19932;-61
2024/04/11 04:28:56;;;;;;;;;;;;;;;;;;5450095;26;19935;-60
2024/04/11 04:31:21;;;;;;;;;;;;;;;;;;5449440;26;19928;-61
2024/04/11 04:33:49;;;;;;;;;;;;;;;;;;5450647;26;19928;-59
2024/04/11 04:36:22;;;;;;;;;;;;;;;;;;5450412;26;19936;-59
2024/04/11 04:38:49;;;;;;;;;;;;;;;;;;5450158;26;19929;-60
2024/04/11 04:41:15;;;;;;;;;;;;;;;;;;5443067;26;19949;-59
2024/04/11 04:43:40;;;;;;;;;;;;;;;;;;5436889;26;19986;-63
2024/04/11 04:46:05;;;;;;;;;;;;;;;;;;5449133;26;19928;-63
2024/04/11 04:48:30;;;;;;;;;;;;;;;;;;5449822;26;19935;-63
2024/04/11 04:50:56;;;;;;;;;;;;;;;;;;5449406;26;19928;-63
2024/04/11 04:53:21;;;;;;;;;;;;;;;;;;5449398;26;19940;-63
2024/04/11 04:55:46;;;;;;;;;;;;;;;;;;5449513;26;19929;-63
2024/04/11 04:58:11;;;;;;;;;;;;;;;;;;5449636;26;19928;-63
2024/04/11 05:00:36;;;;;;;;;;;;;;;;;;5449433;26;19940;-63
2024/04/11 05:03:02;;;;;;;;;;;;;;;;;;5449200;26;20284;-63
2024/04/11 05:05:28;;;;;;;;;;;;;;;;;;5448820;26;19992;-63
2024/04/11 05:07:54;;;;;;;;;;;;;;;;;;5449070;26;20338;-63
2024/04/11 05:10:20;;;;;;;;;;;;;;;;;;5449060;26;19928;-63
2024/04/11 05:12:49;;;;;;;;;;;;;;;;;;5443781;26;19929;-63
2024/04/11 05:15:14;;;;;;;;;;;;;;;;;;5422485;26;20320;-63
2024/04/11 05:17:41;;;;;;;;;;;;;;;;;;5441650;26;20362;-63
2024/04/11 05:20:17;;;;;;;;;;;;;;;;;;5449215;26;19928;-63
2024/04/11 05:22:42;;;;;;;;;;;;;;;;;;5448491;26;19929;-64
2024/04/11 05:25:07;;;;;;;;;;;;;;;;;;5448903;26;19944;-63
2024/04/11 05:27:37;;;;;;;;;;;;;;;;;;5449632;26;19936;-63
2024/04/11 05:30:10;;;;;;;;;;;;;;;;;;5448303;26;19994;-63
2024/04/11 05:32:36;;;;;;;;;;;;;;;;;;5447539;26;19936;-63
2024/04/11 05:35:01;;;;;;;;;;;;;;;;;;5451046;26;19936;-63
2024/04/11 05:37:26;;;;;;;;;;;;;;;;;;5452107;26;20391;-63
2024/04/11 05:39:51;;;;;;;;;;;;;;;;;;5452367;26;20326;-63
2024/04/11 05:42:16;;;;;;;;;;;;;;;;;;5452081;26;19986;-63
2024/04/11 05:44:42;;;;;;;;;;;;;;;;;;5451159;26;19939;-63
2024/04/11 05:47:08;;;;;;;;;;;;;;;;;;5430766;26;20289;-63
2024/04/11 05:49:33;;;;;;;;;;;;;;;;;;5417851;26;19936;-63
2024/04/11 05:52:00;;;;;;;;;;;;;;;;;;5429101;26;19961;-60
2024/04/11 05:54:25;;;;;;;;;;;;;;;;;;5449714;26;20238;-60
2024/04/11 05:56:52;;;;;;;;;;;;;;;;;;5446445;26;19928;-59
2024/04/11 05:59:19;;;;;;;;;;;;;;;;;;5451530;26;19948;-59
2024/04/11 06:01:44;;;;;;;;;;;;;;;;;;5451634;26;19932;-60
2024/04/11 06:04:09;;;;;;;;;;;;;;;;;;5449666;26;19952;-60
2024/04/11 06:06:35;;;;;;;;;;;;;;;;;;5452929;26;19978;-60
2024/04/11 06:09:00;;;;;;;;;;;;;;;;;;5450231;26;20273;-59
2024/04/11 06:11:25;;;;;;;;;;;;;;;;;;5438117;26;19936;-59
2024/04/11 06:13:53;;;;;;;;;;;;;;;;;;5444151;26;20365;-60
2024/04/11 06:16:19;;;;;;;;;;;;;;;;;;5416852;26;20365;-59
2024/04/11 06:18:44;;;;;;;;;;;;;;;;;;5437628;26;19937;-60
2024/04/11 06:21:11;;;;;;;;;;;;;;;;;;5450890;26;19935;-59
2024/04/11 06:23:36;;;;;;;;;;;;;;;;;;5450484;26;19936;-60
2024/04/11 06:26:02;;;;;;;;;;;;;;;;;;5450917;26;19948;-60
2024/04/11 06:28:28;;;;;;;;;;;;;;;;;;5451048;26;20254;-59
2024/04/11 06:30:54;;;;;;;;;;;;;;;;;;5451935;26;20272;-59
2024/04/11 06:33:19;;;;;;;;;;;;;;;;;;5451097;26;19934;-60
2024/04/11 06:35:47;;;;;;;;;;;;;;;;;;5451274;26;19935;-64
2024/04/11 06:38:12;;;;;;;;;;;;;;;;;;5450780;26;19961;-59
2024/04/11 06:40:38;;;;;;;;;;;;;;;;;;5451288;26;19929;-60
2024/04/11 06:43:03;;;;;;;;;;;;;;;;;;5450291;26;20306;-60
2024/04/11 06:45:30;;;;;;;;;;;;;;;;;;5450300;26;20104;-60
2024/04/11 06:47:55;;;;;;;;;;;;;;;;;;5452346;26;19936;-60
2024/04/11 06:50:21;;;;;;;;;;;;;;;;;;5451252;26;19929;-60
2024/04/11 06:52:47;;;;;;;;;;;;;;;;;;5449529;26;19928;-60
2024/04/11 06:55:14;;;;;;;;;;;;;;;;;;5452414;26;19936;-59
2024/04/11 06:57:40;;;;;;;;;;;;;;;;;;5451031;26;19936;-60
2024/04/11 07:00:12;;;;;;;;;;;;;;;;;;5451161;26;19929;-60
2024/04/11 07:02:40;;;;;;;;;;;;;;;;;;5451057;26;19929;-63
2024/04/11 07:05:05;;;;;;;;;;;;;;;;;;5450885;26;19928;-63
2024/04/11 07:07:30;;;;;;;;;;;;;;;;;;5450548;26;19935;-63
2024/04/11 07:09:55;;;;;;;;;;;;;;;;;;5450765;26;19944;-62
2024/04/11 07:12:28;;;;;;;;;;;;;;;;;;5450505;26;19998;-63
2024/04/11 07:14:53;;;;;;;;;;;;;;;;;;5450481;26;19928;-63
2024/04/11 07:17:18;;;;;;;;;;;;;;;;;;5451100;26;20470;-64
2024/04/11 07:19:43;;;;;;;;;;;;;;;;;;5450963;26;19928;-63
2024/04/11 07:22:08;;;;;;;;;;;;;;;;;;5450209;26;19932;-63
2024/04/11 07:24:34;;;;;;;;;;;;;;;;;;5450467;26;19932;-63
2024/04/11 07:27:00;;;;;;;;;;;;;;;;;;5451094;26;19929;-64
2024/04/11 07:29:25;;;;;;;;;;;;;;;;;;5451743;26;19940;-63
2024/04/11 07:31:52;;;;;;;;;;;;;;;;;;5450188;26;19997;-63
2024/04/11 07:34:17;;;;;;;;;;;;;;;;;;5449119;26;19936;-64
2024/04/11 07:36:48;;;;;;;;;;;;;;;;;;5448901;26;19929;-64
2024/04/11 07:39:13;;;;;;;;;;;;;;;;;;5449745;26;19929;-64
2024/04/11 07:41:44;;;;;;;;;;;;;;;;;;5449630;26;20002;-64
2024/04/11 07:44:11;;;;;;;;;;;;;;;;;;5450312;26;19932;-64
2024/04/11 07:46:37;;;;;;;;;;;;;;;;;;5450383;26;19929;-64
2024/04/11 07:49:07;;;;;;;;;;;;;;;;;;5450669;26;20380;-64
2024/04/11 07:51:32;;;;;;;;;;;;;;;;;;5450222;26;19935;-65
2024/04/11 07:53:57;;;;;;;;;;;;;;;;;;5449812;26;19929;-64
2024/04/11 07:56:23;;;;;;;;;;;;;;;;;;5449153;26;19946;-65
2024/04/11 07:58:48;;;;;;;;;;;;;;;;;;5450252;26;19981;-64
2024/04/11 08:01:14;;;;;;;;;;;;;;;;;;5449753;26;20682;-64
2024/04/11 08:03:39;;;;;;;;;;;;;;;;;;5448809;26;19940;-64
2024/04/11 08:06:08;;;;;;;;;;;;;;;;;;5450443;26;19929;-64
2024/04/11 08:08:33;;;;;;;;;;;;;;;;;;5448277;26;19928;-64
2024/04/11 08:11:02;;;;;;;;;;;;;;;;;;5451082;26;19928;-64
2024/04/11 08:13:28;;;;;;;;;;;;;;;;;;5448911;26;20303;-64
2024/04/11 08:15:53;;;;;;;;;;;;;;;;;;5451134;26;19982;-64
2024/04/11 08:18:18;;;;;;;;;;;;;;;;;;5448900;26;19935;-64
2024/04/11 08:20:44;;;;;;;;;;;;;;;;;;5450933;26;19928;-64
2024/04/11 08:23:11;;;;;;;;;;;;;;;;;;5449883;26;20269;-64
2024/04/11 08:25:36;;;;;;;;;;;;;;;;;;5449583;26;19932;-64
2024/04/11 08:28:02;;;;;;;;;;;;;;;;;;5448947;26;19978;-64
2024/04/11 08:30:27;;;;;;;;;;;;;;;;;;5449952;26;20023;-64
2024/04/11 08:32:52;;;;;;;;;;;;;;;;;;5448819;26;20000;-64
2024/04/11 08:35:17;;;;;;;;;;;;;;;;;;5449910;26;20290;-64
2024/04/11 08:37:42;;;;;;;;;;;;;;;;;;5449242;26;19944;-64
2024/04/11 08:40:10;;;;;;;;;;;;;;;;;;5448506;26;19978;-65
2024/04/11 08:42:36;;;;;;;;;;;;;;;;;;5450833;26;20628;-64
2024/04/11 08:45:06;;;;;;;;;;;;;;;;;;5449266;26;19978;-64
2024/04/11 08:47:31;;;;;;;;;;;;;;;;;;5448807;26;19928;-65
2024/04/11 08:49:56;;;;;;;;;;;;;;;;;;5449493;26;19997;-64
2024/04/11 08:52:21;;;;;;;;;;;;;;;;;;5449759;26;19928;-64
2024/04/11 08:54:46;;;;;;;;;;;;;;;;;;5448110;26;19928;-64
2024/04/11 08:57:12;;;;;;;;;;;;;;;;;;5449061;26;19938;-64
2024/04/11 08:59:38;;;;;;;;;;;;;;;;;;5449011;26;19943;-64
2024/04/11 09:02:05;;;;;;;;;;;;;;;;;;5450247;26;19928;-64
2024/04/11 09:04:31;;;;;;;;;;;;;;;;;;5449315;26;19929;-64
2024/04/11 09:06:57;;;;;;;;;;;;;;;;;;5451514;26;19929;-65
2024/04/11 09:09:23;;;;;;;;;;;;;;;;;;5452494;26;19936;-66
2024/04/11 09:11:49;;;;;;;;;;;;;;;;;;5452123;26;19929;-65
2024/04/11 09:14:14;;;;;;;;;;;;;;;;;;5452816;26;20277;-65
2024/04/11 09:16:39;;;;;;;;;;;;;;;;;;5452985;26;19935;-65
2024/04/11 09:19:09;;;;;;;;;;;;;;;;;;5452205;26;19957;-65
2024/04/11 09:21:34;;;;;;;;;;;;;;;;;;5452785;26;20391;-65
2024/04/11 09:23:59;;;;;;;;;;;;;;;;;;5453840;26;19928;-60
2024/04/11 09:26:24;;;;;;;;;;;;;;;;;;5451708;26;19928;-61
2024/04/11 09:28:50;;;;;;;;;;;;;;;;;;5451880;26;19928;-61
2024/04/11 09:31:18;;;;;;;;;;;;;;;;;;5452860;26;19935;-60
2024/04/11 09:33:43;;;;;;;;;;;;;;;;;;5452725;26;19929;-61
2024/04/11 09:36:08;;;;;;;;;;;;;;;;;;5453322;26;19929;-62
2024/04/11 09:38:34;;;;;;;;;;;;;;;;;;5451123;26;19928;-62
2024/04/11 09:41:04;;;;;;;;;;;;;;;;;;5452509;26;20001;-60
2024/04/11 09:43:31;;;;;;;;;;;;;;;;;;5452383;26;19998;-62
2024/04/11 09:46:06;;;;;;;;;;;;;;;;;;5453136;26;19929;-61
2024/04/11 09:48:32;;;;;;;;;;;;;;;;;;5452972;26;19940;-63
2024/04/11 09:50:57;;;;;;;;;;;;;;;;;;5451480;26;20349;-61
2024/04/11 09:53:28;;;;;;;;;;;;;;;;;;5451566;26;19928;-61
2024/04/11 09:55:53;;;;;;;;;;;;;;;;;;5452744;26;19929;-59
2024/04/11 09:58:20;;;;;;;;;;;;;;;;;;5451608;26;19951;-60
2024/04/11 10:00:48;;;;;;;;;;;;;;;;;;5451538;26;19929;-59
2024/04/11 10:03:14;;;;;;;;;;;;;;;;;;5452237;26;19936;-60
2024/04/11 10:05:40;;;;;;;;;;;;;;;;;;5451095;26;19929;-60
2024/04/11 10:08:16;;;;;;;;;;;;;;;;;;5451650;26;19935;-60
2024/04/11 10:10:42;;;;;;;;;;;;;;;;;;5450462;26;20022;-60
2024/04/11 10:13:08;;;;;;;;;;;;;;;;;;5450408;26;20015;-60
2024/04/11 10:15:34;;;;;;;;;;;;;;;;;;5450767;26;19940;-59
2024/04/11 10:17:59;;;;;;;;;;;;;;;;;;5452449;26;20017;-61
2024/04/11 10:20:24;;;;;;;;;;;;;;;;;;5451254;26;19997;-60
2024/04/11 10:22:52;;;;;;;;;;;;;;;;;;5450915;26;20372;-60
2024/04/11 10:25:21;;;;;;;;;;;;;;;;;;5451493;26;19929;-60
2024/04/11 10:27:47;;;;;;;;;;;;;;;;;;5449971;26;19928;-60
2024/04/11 10:30:12;;;;;;;;;;;;;;;;;;5451722;26;20021;-60
2024/04/11 10:32:39;;;;;;;;;;;;;;;;;;5451889;26;20265;-59
2024/04/11 10:35:04;;;;;;;;;;;;;;;;;;5450270;26;19929;-63
2024/04/11 10:37:33;;;;;;;;;;;;;;;;;;5449339;26;19935;-63
2024/04/11 10:39:58;;;;;;;;;;;;;;;;;;5452588;26;19943;-64
2024/04/11 10:42:29;;;;;;;;;;;;;;;;;;5451183;26;19928;-63
2024/04/11 10:44:56;;;;;;;;;;;;;;;;;;5449878;26;19982;-64
2024/04/11 10:47:22;;;;;;;;;;;;;;;;;;5451092;26;20251;-63
2024/04/11 10:49:51;;;;;;;;;;;;;;;;;;5452314;26;19928;-63
2024/04/11 10:52:16;;;;;;;;;;;;;;;;;;5449166;26;19964;-64
2024/04/11 10:54:45;;;;;;;;;;;;;;;;;;5450576;26;19928;-64
2024/04/11 10:57:12;;;;;;;;;;;;;;;;;;5450670;26;19934;-64
2024/04/11 10:59:38;;;;;;;;;;;;;;;;;;5450658;26;19936;-63
2024/04/11 11:02:08;;;;;;;;;;;;;;;;;;5449128;26;20393;-63
2024/04/11 11:04:33;;;;;;;;;;;;;;;;;;5416307;26;20019;-63
2024/04/11 11:07:01;;;;;;;;;;;;;;;;;;5421904;26;20257;-63
2024/04/11 11:09:27;;;;;;;;;;;;;;;;;;5447831;26;19929;-63
2024/04/11 11:11:54;;;;;;;;;;;;;;;;;;5450857;26;20528;-63
2024/04/11 11:14:20;;;;;;;;;;;;;;;;;;5449276;26;19936;-64
2024/04/11 11:16:47;;;;;;;;;;;;;;;;;;5451855;26;19928;-63
2024/04/11 11:19:12;;;;;;;;;;;;;;;;;;5451070;26;20344;-63
2024/04/11 11:21:40;;;;;;;;;;;;;;;;;;5451939;26;20357;-63
2024/04/11 11:24:06;;;;;;;;;;;;;;;;;;5451626;26;20250;-63
2024/04/11 11:26:35;;;;;;;;;;;;;;;;;;5450418;26;19964;-63
2024/04/11 11:29:01;;;;;;;;;;;;;;;;;;5449220;26;19928;-63
2024/04/11 11:31:31;;;;;;;;;;;;;;;;;;5450102;26;19929;-63
2024/04/11 11:33:56;;;;;;;;;;;;;;;;;;5450537;26;19928;-63
2024/04/11 11:36:21;;;;;;;;;;;;;;;;;;5449923;26;19935;-63
2024/04/11 11:38:48;;;;;;;;;;;;;;;;;;5447458;26;19936;-63
2024/04/11 11:41:15;;;;;;;;;;;;;;;;;;5451691;26;20751;-63
2024/04/11 11:43:43;;;;;;;;;;;;;;;;;;5450284;26;20301;-60
2024/04/11 11:46:27;;;;;;;;;;;;;;;;;;5449628;26;19936;-60
2024/04/11 11:48:52;;;;;;;;;;;;;;;;;;5450250;26;19967;-60
2024/04/11 11:51:19;;;;;;;;;;;;;;;;;;5449321;26;19935;-60
2024/04/11 11:53:49;;;;;;;;;;;;;;;;;;5450730;26;19928;-59
2024/04/11 11:56:14;;;;;;;;;;;;;;;;;;5450427;26;20482;-60
2024/04/11 11:58:43;;;;;;;;;;;;;;;;;;5449835;26;19940;-60
2024/04/11 12:01:28;;;;;;;;;;;;;;;;;;5448989;26;19928;-59
2024/04/11 12:03:55;;;;;;;;;;;;;;;;;;5450209;26;19928;-60
2024/04/11 12:06:21;;;;;;;;;;;;;;;;;;5449824;26;19936;-60
2024/04/11 12:08:46;;;;;;;;;;;;;;;;;;5451299;26;20460;-60
2024/04/11 12:13:44;;;;;;;;;;;;;;;;;;5449746;26;19970;-60
2024/04/11 12:16:15;;;;;;;;;;;;;;;;;;5448162;26;19928;-59
2024/04/11 12:18:41;;;;;;;;;;;;;;;;;;5450409;26;19939;-59
2024/04/11 12:21:13;;;;;;;;;;;;;;;;;;5450364;26;20367;-59
2024/04/11 12:23:42;;;;;;;;;;;;;;;;;;5451203;26;19928;-59
2024/04/11 12:26:11;;;;;;;;;;;;;;;;;;5449302;26;19973;-60
2024/04/11 12:28:37;;;;;;;;;;;;;;;;;;5450645;26;19936;-59
2024/04/11 12:31:07;;;;;;;;;;;;;;;;;;5450363;26;19978;-61
2024/04/11 12:33:34;;;;;;;;;;;;;;;;;;5450889;26;20001;-60
2024/04/11 12:36:09;;;;;;;;;;;;;;;;;;5451304;26;19935;-61
2024/04/11 12:38:39;;;;;;;;;;;;;;;;;;5450602;26;19936;-60
2024/04/11 12:41:04;;;;;;;;;;;;;;;;;;5450327;26;20414;-60
2024/04/11 12:43:29;;;;;;;;;;;;;;;;;;5449211;26;19936;-60
2024/04/11 12:45:54;;;;;;;;;;;;;;;;;;5448065;26;20369;-60
2024/04/11 12:48:22;;;;;;;;;;;;;;;;;;5449795;26;19929;-60
2024/04/11 12:50:50;;;;;;;;;;;;;;;;;;5449059;26;20423;-60
2024/04/11 12:53:21;;;;;;;;;;;;;;;;;;5447579;26;21512;-60
2024/04/11 12:55:52;;;;;;;;;;;;;;;;;;5450275;26;19928;-60
2024/04/11 12:58:19;;;;;;;;;;;;;;;;;;5449187;26;20430;-60
2024/04/11 13:00:44;;;;;;;;;;;;;;;;;;5449378;26;19928;-61
2024/04/11 13:03:15;;;;;;;;;;;;;;;;;;5448284;26;19939;-61
2024/04/11 13:05:44;;;;;;;;;;;;;;;;;;5450200;26;19936;-60
2024/04/11 13:08:09;;;;;;;;;;;;;;;;;;5448997;26;19936;-60
2024/04/11 13:10:34;;;;;;;;;;;;;;;;;;5448089;26;19936;-59
2024/04/11 13:13:02;;;;;;;;;;;;;;;;;;5450335;26;20025;-60
2024/04/11 13:15:43;;;;;;;;;;;;;;;;;;5449424;26;19932;-60
2024/04/11 13:18:11;;;;;;;;;;;;;;;;;;5448360;26;19928;-60
2024/04/11 13:20:37;;;;;;;;;;;;;;;;;;5449170;26;19929;-60
2024/04/11 13:23:21;;;;;;;;;;;;;;;;;;5449239;26;19932;-60
2024/04/11 13:25:47;;;;;;;;;;;;;;;;;;5448640;26;19997;-60
2024/04/11 13:28:13;;;;;;;;;;;;;;;;;;5448722;26;20004;-59
2024/04/11 13:30:42;;;;;;;;;;;;;;;;;;5447881;26;20464;-61
2024/04/11 13:33:14;;;;;;;;;;;;;;;;;;5447377;26;19956;-62
2024/04/11 13:35:48;;;;;;;;;;;;;;;;;;5448509;26;19936;-60
2024/04/11 13:38:13;;;;;;;;;;;;;;;;;;5449258;26;20460;-61
2024/04/11 13:43:04;;;;;;;;;;;;;;;;;;5449802;26;19965;-59
2024/04/11 13:45:29;;;;;;;;;;;;;;;;;;5448068;26;19948;-60
2024/04/11 13:48:00;;;;;;;;;;;;;;;;;;5448138;26;19992;-59
2024/04/11 13:53:08;;;;;;;;;;;;;;;;;;5447824;26;19928;-59
2024/04/11 13:55:34;;;;;;;;;;;;;;;;;;5452161;26;19932;-63
2024/04/11 13:58:02;;;;;;;;;;;;;;;;;;5451839;26;19928;-63
2024/04/11 14:00:36;;;;;;;;;;;;;;;;;;5451833;26;19936;-63
2024/04/11 14:03:16;;;;;;;;;;;;;;;;;;5423830;26;20649;-63
2024/04/11 14:05:59;;;;;;;;;;;;;;;;;;5451903;26;19936;-63
2024/04/11 14:08:25;;;;;;;;;;;;;;;;;;5453296;26;19928;-64
2024/04/11 14:10:50;;;;;;;;;;;;;;;;;;5450478;26;19935;-64
2024/04/11 14:13:15;;;;;;;;;;;;;;;;;;5451390;26;19937;-63
2024/04/11 14:15:44;;;;;;;;;;;;;;;;;;5451999;26;19996;-63
2024/04/11 14:18:17;;;;;;;;;;;;;;;;;;5452235;26;19928;-64
2024/04/11 14:20:44;;;;;;;;;;;;;;;;;;5450013;26;19928;-64
2024/04/11 14:23:32;;;;;;;;;;;;;;;;;;5452824;26;19978;-65
2024/04/11 14:26:06;;;;;;;;;;;;;;;;;;5447848;26;19941;-64
2024/04/11 14:28:34;;;;;;;;;;;;;;;;;;5452526;26;19929;-64
2024/04/11 14:31:08;;;;;;;;;;;;;;;;;;5451426;26;19955;-65
2024/04/11 14:34:19;;;;;;;;;;;;;;;;;;5416952;26;19936;-64
2024/04/11 14:36:27;;;;;;;;;;;;;;;;;;5450343;26;19993;-64
2024/04/11 14:38:55;;;;;;;;;;;;;;;;;;5452409;26;19928;-65
2024/04/11 14:41:20;;;;;;;;;;;;;;;;;;5450722;26;19932;-64
2024/04/11 14:43:48;;;;;;;;;;;;;;;;;;5451293;26;19958;-64
2024/04/11 14:46:13;;;;;;;;;;;;;;;;;;5452564;26;20361;-65
2024/04/11 14:48:40;;;;;;;;;;;;;;;;;;5451933;26;19935;-65
2024/04/11 14:51:08;;;;;;;;;;;;;;;;;;5450468;26;19936;-64
2024/04/11 14:53:33;;;;;;;;;;;;;;;;;;5451100;26;19928;-64
2024/04/11 14:56:14;;;;;;;;;;;;;;;;;;5450737;26;19936;-65
2024/04/11 14:58:42;;;;;;;;;;;;;;;;;;5450907;26;19956;-65
2024/04/11 15:01:14;;;;;;;;;;;;;;;;;;5451380;26;19939;-65
2024/04/11 15:03:41;;;;;;;;;;;;;;;;;;5451757;26;20056;-64
2024/04/11 15:06:06;;;;;;;;;;;;;;;;;;5450077;26;19932;-63
2024/04/11 15:08:31;;;;;;;;;;;;;;;;;;5451336;26;19929;-63
2024/04/11 15:11:00;;;;;;;;;;;;;;;;;;5450584;26;19953;-63
2024/04/11 15:13:25;;;;;;;;;;;;;;;;;;5462768;26;20431;-62
2024/04/11 15:15:59;;;;;;;;;;;;;;;;;;5476988;26;19932;-62
2024/04/11 15:18:27;;;;;;;;;;;;;;;;;;5479810;26;19928;-63
2024/04/11 15:21:10;;;;;;;;;;;;;;;;;;5468288;26;19974;-65
2024/04/11 15:23:36;;;;;;;;;;;;;;;;;;5472680;26;19936;-65
2024/04/11 15:26:03;;;;;;;;;;;;;;;;;;5470929;26;19935;-64
2024/04/11 15:28:31;;;;;;;;;;;;;;;;;;5458694;26;20322;-65
2024/04/11 15:33:29;;;;;;;;;;;;;;;;;;5463688;26;19957;-64
2024/04/11 15:35:56;;;;;;;;;;;;;;;;;;5466375;26;20813;-65
2024/04/11 15:38:21;;;;;;;;;;;;;;;;;;5447583;26;19936;-64
2024/04/11 15:40:54;;;;;;;;;;;;;;;;;;5453752;26;19969;-65
2024/04/11 15:43:26;;;;;;;;;;;;;;;;;;5443321;26;19928;-65
2024/04/11 15:46:06;;;;;;;;;;;;;;;;;;5465866;26;19928;-65
2024/04/11 15:48:35;;;;;;;;;;;;;;;;;;5469815;26;19928;-65
2024/04/11 15:51:03;;;;;;;;;;;;;;;;;;5471026;26;20298;-63
2024/04/11 15:53:31;;;;;;;;;;;;;;;;;;5467140;26;19936;-63
2024/04/11 15:56:02;;;;;;;;;;;;;;;;;;5439426;26;19929;-63
2024/04/11 15:58:35;;;;;;;;;;;;;;;;;;5448167;26;19928;-64
2024/04/11 16:01:03;;;;;;;;;;;;;;;;;;5428315;26;20476;-63
2024/04/11 16:03:36;;;;;;;;;;;;;;;;;;5487553;26;20294;-63
2024/04/11 16:06:01;;;;;;;;;;;;;;;;;;5471483;26;19928;-63
2024/04/11 16:08:26;;;;;;;;;;;;;;;;;;5449457;26;20309;-63
2024/04/11 16:11:00;;;;;;;;;;;;;;;;;;5448495;26;20384;-63
2024/04/11 16:13:27;;;;;;;;;;;;;;;;;;5451078;26;20375;-63
2024/04/11 16:15:56;;;;;;;;;;;;;;;;;;5449686;26;19936;-63
2024/04/11 16:18:25;;;;;;;;;;;;;;;;;;5449509;26;19929;-63
2024/04/11 16:20:50;;;;;;;;;;;;;;;;;;5451258;26;19929;-65
2024/04/11 16:23:16;;;;;;;;;;;;;;;;;;5448413;26;19935;-64
2024/04/11 16:25:41;;;;;;;;;;;;;;;;;;5450867;26;19939;-64
2024/04/11 16:28:08;;;;;;;;;;;;;;;;;;5461664;26;20671;-65
2024/04/11 16:31:10;;;;;;;;;;;;;;;;;;5483533;26;19928;-64
2024/04/11 16:33:18;;;;;;;;;;;;;;;;;;5469207;26;19931;-65
2024/04/11 16:35:51;;;;;;;;;;;;;;;;;;5480112;26;19928;-65
2024/04/11 16:38:23;;;;;;;;;;;;;;;;;;5474194;26;19932;-65
2024/04/11 16:40:52;;;;;;;;;;;;;;;;;;5470036;26;19928;-65
2024/04/11 16:43:23;;;;;;;;;;;;;;;;;;5478607;26;19935;-65
2024/04/11 16:45:50;;;;;;;;;;;;;;;;;;5464223;26;19935;-65
2024/04/11 16:48:15;;;;;;;;;;;;;;;;;;5442297;26;19928;-65
2024/04/11 16:50:46;;;;;;;;;;;;;;;;;;5463855;26;19997;-65
2024/04/11 16:53:22;;;;;;;;;;;;;;;;;;5459069;26;19928;-65
2024/04/11 16:55:48;;;;;;;;;;;;;;;;;;5475640;26;19928;-65